Darstellungsparameter: Aktuell verwendete Einstellungen:
Skalierung der Graphiken ... ?
xyx+y,   Skalierungsfaktor:      Skalierung: Modus: x, Faktor: 1
Darstellungszeitraum ... ?
Vom - - bis: - -   Zeitraum: 04.06.2014 - 04.06.2014
Min/Max/Avg-Anzeige ... ?
Zeige MMA aktuell
Zeige MMA Monat
Zeige MMA alles
Zeige --A aktuell
Zeige --A Monat
Zeige --A alles
Keine MMA-Anzeige
MMA:
Keine MMA-Graphiken
MMA-Basis: 04.06.2014 - 04.06.2014
Quicknavigation für Darstellung... ?
Tage:      1T, 2T, 3T, 5T -1T -2T -3T -5T +1T +2T +3T +5T
Wochen: 1W, 2W, 3W -1W -2W -3W +1W +2W +3W
Monate: 1M, 3M, 6M -1M -3M -6M +1M +3M +6M
Jahre:    1J, 3J, 5J, 10J -1J -3J -5J -10J +1J +3J +5J +10J
Nutze für die Darstellung ... ?
Originaldaten oder Mittelwerte auf ...
Stundenbasis Tagesbasis Wochenbasis
Monatsbasis Jahresbasis      Datenbasis: Original-Daten
Darstellen als:
Statistik (Auto) Statistik J:M      Darstellung:
Zur Graphik,    zurück zur Übersicht aller Sensoren.
 
Tabellarische Datenbersicht: ?
 
Sensor: Nr:Datum:Temp:Abs-Feuchte:Windchill:Wind:
Aussen-T/F 1 04-06-2014 00:00:00 13.2 C 9.76 g/m*3 13.2 C 0 km/h
2 04-06-2014 00:05:00 13.2 C 9.76 g/m*3 13.2 C 0 km/h
3 04-06-2014 00:10:00 13.1 C 9.81 g/m*3 13.1 C 1.6 km/h
4 04-06-2014 00:15:00 13.1 C 9.81 g/m*3 13.1 C 0 km/h
5 04-06-2014 00:20:00 13 C 9.75 g/m*3 13 C 0 km/h
6 04-06-2014 00:25:00 13 C 9.75 g/m*3 13 C 0 km/h
7 04-06-2014 00:30:00 12.9 C 9.81 g/m*3 12.9 C 0 km/h
8 04-06-2014 00:35:00 12.9 C 9.69 g/m*3 12.9 C 0 km/h
9 04-06-2014 00:40:00 12.8 C 9.74 g/m*3 12.8 C 0 km/h
10 04-06-2014 00:45:00 12.8 C 9.74 g/m*3 12.8 C 0 km/h
11 04-06-2014 00:50:00 12.8 C 9.74 g/m*3 12.8 C 0 km/h
12 04-06-2014 00:55:00 12.8 C 9.74 g/m*3 12.8 C 0 km/h
13 04-06-2014 01:00:00 12.7 C 9.68 g/m*3 12.7 C 0 km/h
14 04-06-2014 01:05:00 12.7 C 9.68 g/m*3 12.7 C 0 km/h
15 04-06-2014 01:10:00 12.5 C 9.68 g/m*3 12.5 C 0 km/h
16 04-06-2014 01:15:00 12.4 C 9.62 g/m*3 12.4 C 0 km/h
17 04-06-2014 01:20:00 12.3 C 9.56 g/m*3 12.3 C 0 km/h
18 04-06-2014 01:25:00 12.3 C 9.66 g/m*3 12.3 C 0 km/h
19 04-06-2014 01:30:00 12.2 C 9.5 g/m*3 12.2 C 0 km/h
20 04-06-2014 01:35:00 12.1 C 9.54 g/m*3 12.1 C 0 km/h
21 04-06-2014 01:40:00 11.9 C 9.43 g/m*3 11.9 C 0 km/h
22 04-06-2014 01:45:00 11.9 C 9.43 g/m*3 11.9 C 0 km/h
23 04-06-2014 01:50:00 11.9 C 9.43 g/m*3 11.9 C 0 km/h
24 04-06-2014 01:55:00 11.9 C 9.43 g/m*3 11.9 C 0 km/h
25 04-06-2014 02:00:00 11.8 C 9.47 g/m*3 11.8 C 1.6 km/h
Sensor: Nr:Datum:Temp:Abs-Feuchte:Windchill:Wind:
Aussen-T/F 26 04-06-2014 02:05:00 11.8 C 9.47 g/m*3 11.8 C 1.6 km/h
27 04-06-2014 02:10:00 11.8 C 9.47 g/m*3 11.8 C 0 km/h
28 04-06-2014 02:15:00 11.8 C 9.47 g/m*3 11.8 C 0 km/h
29 04-06-2014 02:20:00 11.7 C 9.52 g/m*3 11.7 C 0 km/h
30 04-06-2014 02:25:00 11.7 C 9.52 g/m*3 11.7 C 0 km/h
31 04-06-2014 02:30:00 11.6 C 9.46 g/m*3 11.6 C 0 km/h
32 04-06-2014 02:35:00 11.5 C 9.4 g/m*3 11.5 C 0 km/h
33 04-06-2014 02:40:00 11.4 C 9.34 g/m*3 11.4 C 0 km/h
34 04-06-2014 02:45:00 11.4 C 9.34 g/m*3 11.4 C 0 km/h
35 04-06-2014 02:50:00 11.3 C 9.38 g/m*3 11.3 C 0 km/h
36 04-06-2014 02:55:00 11.3 C 9.38 g/m*3 11.3 C 0 km/h
37 04-06-2014 03:00:00 11.3 C 9.38 g/m*3 11.3 C 0 km/h
38 04-06-2014 03:05:00 11.3 C 9.38 g/m*3 11.3 C 0 km/h
39 04-06-2014 03:10:00 11.2 C 9.33 g/m*3 11.2 C 0 km/h
40 04-06-2014 03:15:00 11.1 C 9.27 g/m*3 11.1 C 0 km/h
41 04-06-2014 03:20:00 11.1 C 9.27 g/m*3 11.1 C 0 km/h
42 04-06-2014 03:25:00 11 C 9.31 g/m*3 11 C 0 km/h
43 04-06-2014 03:30:00 10.9 C 9.25 g/m*3 10.9 C 0 km/h
44 04-06-2014 03:35:00 10.9 C 9.25 g/m*3 10.9 C 0 km/h
45 04-06-2014 03:40:00 10.8 C 9.19 g/m*3 10.8 C 0 km/h
46 04-06-2014 03:45:00 10.8 C 9.19 g/m*3 10.8 C 0 km/h
47 04-06-2014 03:50:00 10.8 C 9.19 g/m*3 10.8 C 0 km/h
48 04-06-2014 03:55:00 10.8 C 9.19 g/m*3 10.8 C 0 km/h
49 04-06-2014 04:00:00 10.8 C 9.19 g/m*3 10.8 C 0 km/h
50 04-06-2014 04:05:00 10.8 C 9.29 g/m*3 10.8 C 0 km/h
Sensor: Nr:Datum:Temp:Abs-Feuchte:Windchill:Wind:
Aussen-T/F 51 04-06-2014 04:10:00 10.8 C 9.29 g/m*3 10.8 C 1.6 km/h
52 04-06-2014 04:15:00 10.7 C 9.23 g/m*3 10.7 C 1.6 km/h
53 04-06-2014 04:20:00 10.7 C 9.23 g/m*3 10.7 C 0 km/h
54 04-06-2014 04:25:00 10.7 C 9.23 g/m*3 10.7 C 0 km/h
55 04-06-2014 04:30:00 10.6 C 9.17 g/m*3 10.6 C 0 km/h
56 04-06-2014 04:35:00 10.5 C 9.12 g/m*3 10.5 C 0 km/h
57 04-06-2014 04:40:00 10.5 C 9.12 g/m*3 10.5 C 0 km/h
58 04-06-2014 04:45:00 10.6 C 9.17 g/m*3 10.6 C 1.6 km/h
59 04-06-2014 04:50:00 10.6 C 9.17 g/m*3 10.6 C 0 km/h
60 04-06-2014 04:55:00 10.6 C 9.17 g/m*3 10.6 C 0 km/h
61 04-06-2014 05:00:00 10.7 C 9.23 g/m*3 10.7 C 0 km/h
62 04-06-2014 05:05:00 10.7 C 9.23 g/m*3 10.7 C 0 km/h
63 04-06-2014 05:10:00 10.8 C 9.39 g/m*3 10.8 C 0 km/h
64 04-06-2014 05:15:00 10.8 C 9.39 g/m*3 10.8 C 0 km/h
65 04-06-2014 05:20:00 10.9 C 9.45 g/m*3 10.9 C 0 km/h
66 04-06-2014 05:25:00 10.9 C 9.35 g/m*3 10.9 C 0 km/h
67 04-06-2014 05:30:00 10.9 C 9.35 g/m*3 10.9 C 0 km/h
68 04-06-2014 05:35:00 10.9 C 9.35 g/m*3 10.9 C 0 km/h
69 04-06-2014 05:40:00 10.9 C 9.35 g/m*3 10.9 C 0 km/h
70 04-06-2014 05:45:00 10.9 C 9.35 g/m*3 10.9 C 0 km/h
71 04-06-2014 05:50:00 10.9 C 9.35 g/m*3 10.9 C 0 km/h
72 04-06-2014 05:55:00 10.9 C 9.35 g/m*3 10.9 C 0 km/h
73 04-06-2014 06:00:00 10.9 C 9.35 g/m*3 10.9 C 0 km/h
74 04-06-2014 06:05:00 11.1 C 9.47 g/m*3 11.1 C 0 km/h
75 04-06-2014 06:10:00 11.2 C 9.53 g/m*3 11.2 C 1.6 km/h
Sensor: Nr:Datum:Temp:Abs-Feuchte:Windchill:Wind:
Aussen-T/F 76 04-06-2014 06:15:00 11.3 C 9.59 g/m*3 11.3 C 0 km/h
77 04-06-2014 06:20:00 11.4 C 9.65 g/m*3 11.4 C 1.6 km/h
78 04-06-2014 06:25:00 11.6 C 9.67 g/m*3 11.6 C 0 km/h
79 04-06-2014 06:30:00 11.7 C 9.73 g/m*3 11.7 C 0 km/h
80 04-06-2014 06:35:00 11.8 C 9.79 g/m*3 11.8 C 0 km/h
81 04-06-2014 06:40:00 11.9 C 9.74 g/m*3 11.9 C 1.6 km/h
82 04-06-2014 06:45:00 12.1 C 9.87 g/m*3 12.1 C 0 km/h
83 04-06-2014 06:50:00 12.1 C 9.76 g/m*3 12.1 C 0 km/h
84 04-06-2014 06:55:00 12.2 C 9.82 g/m*3 12.2 C 0 km/h
85 04-06-2014 07:00:00 12.3 C 9.77 g/m*3 12.3 C 0 km/h
86 04-06-2014 07:05:00 12.4 C 9.83 g/m*3 12.4 C 0 km/h
87 04-06-2014 07:10:00 12.5 C 9.89 g/m*3 12.5 C 0 km/h
88 04-06-2014 07:15:00 12.6 C 9.85 g/m*3 12.6 C 0 km/h
89 04-06-2014 07:20:00 12.7 C 9.91 g/m*3 12.7 C 0 km/h
90 04-06-2014 07:25:00 12.8 C 10.08 g/m*3 12.8 C 1.6 km/h
91 04-06-2014 07:30:00 12.9 C 10.03 g/m*3 12.9 C 0 km/h
92 04-06-2014 07:35:00 13.1 C 10.16 g/m*3 13.1 C 0 km/h
93 04-06-2014 07:40:00 13.3 C 10.17 g/m*3 13.3 C 0 km/h
94 04-06-2014 07:45:00 13.4 C 10.23 g/m*3 13.4 C 0 km/h
95 04-06-2014 07:50:00 13.6 C 10.36 g/m*3 13.6 C 0 km/h
96 04-06-2014 07:55:00 13.7 C 10.3 g/m*3 13.7 C 0 km/h
97 04-06-2014 08:00:00 13.8 C 10.37 g/m*3 13.8 C 0 km/h
98 04-06-2014 08:05:00 14 C 10.49 g/m*3 14 C 0 km/h
99 04-06-2014 08:10:00 14.4 C 10.75 g/m*3 14.4 C 0 km/h
100 04-06-2014 08:15:00 14.8 C 10.77 g/m*3 14.8 C 1.6 km/h
Sensor: Nr:Datum:Temp:Abs-Feuchte:Windchill:Wind:
Aussen-T/F 101 04-06-2014 08:20:00 15.3 C 10.97 g/m*3 15.3 C 1.6 km/h
102 04-06-2014 08:25:00 15.7 C 11.11 g/m*3 15.7 C 1.6 km/h
103 04-06-2014 08:30:00 15.9 C 11.1 g/m*3 15.9 C 1.6 km/h
104 04-06-2014 08:35:00 16.2 C 11.17 g/m*3 16.2 C 1.6 km/h
105 04-06-2014 08:40:00 16.4 C 11.17 g/m*3 16.4 C 1.6 km/h
106 04-06-2014 08:45:00 16.8 C 11.58 g/m*3 16.8 C 1.6 km/h
107 04-06-2014 08:50:00 17.1 C 11.21 g/m*3 17.1 C 6.4 km/h
108 04-06-2014 08:55:00 17.4 C 11.12 g/m*3 17.4 C 4.8 km/h
109 04-06-2014 09:00:00 17.5 C 11.18 g/m*3 17.5 C 3.2 km/h
110 04-06-2014 09:05:00 17.6 C 11.1 g/m*3 17.6 C 1.6 km/h
111 04-06-2014 09:10:00 17.7 C 10.86 g/m*3 17.7 C 9.7 km/h
112 04-06-2014 09:15:00 17.8 C 11.08 g/m*3 17.8 C 3.2 km/h
113 04-06-2014 09:20:00 17.8 C 11.08 g/m*3 17.8 C 4.8 km/h
114 04-06-2014 09:25:00 17.8 C 10.93 g/m*3 17.8 C 3.2 km/h
115 04-06-2014 09:30:00 17.9 C 11.15 g/m*3 17.9 C 8.1 km/h
116 04-06-2014 09:35:00 18.1 C 11.43 g/m*3 18.1 C 4.8 km/h
117 04-06-2014 09:40:00 18.3 C 11.26 g/m*3 18.3 C 4.8 km/h
118 04-06-2014 09:45:00 18.3 C 11.1 g/m*3 18.3 C 14.5 km/h
119 04-06-2014 09:50:00 18.3 C 11.1 g/m*3 18.3 C 12.9 km/h
120 04-06-2014 09:55:00 18.3 C 11.1 g/m*3 18.3 C 4.8 km/h
121 04-06-2014 11:40:00 20.4 C 12.21 g/m*3 20.4 C 6.4 km/h
122 04-06-2014 11:45:00 20.6 C 12.17 g/m*3 20.6 C 3.2 km/h
123 04-06-2014 11:50:00 20.8 C 11.77 g/m*3 20.8 C 3.2 km/h
124 04-06-2014 11:55:00 20.9 C 11.84 g/m*3 20.9 C 3.2 km/h
125 04-06-2014 12:00:00 21 C 11.54 g/m*3 21 C 8.1 km/h
Sensor: Nr:Datum:Temp:Abs-Feuchte:Windchill:Wind:
Aussen-T/F 126 04-06-2014 12:05:00 20.9 C 11.47 g/m*3 20.9 C 3.2 km/h
127 04-06-2014 12:10:00 20.9 C 11.84 g/m*3 20.9 C 3.2 km/h
128 04-06-2014 12:15:00 20.8 C 11.59 g/m*3 20.8 C 3.2 km/h
129 04-06-2014 12:20:00 20.6 C 12.35 g/m*3 20.6 C 1.6 km/h
130 04-06-2014 12:25:00 20.3 C 11.61 g/m*3 20.3 C 3.2 km/h
131 04-06-2014 12:30:00 20.1 C 12.34 g/m*3 20.1 C 0 km/h
132 04-06-2014 12:35:00 19.8 C 11.27 g/m*3 19.8 C 3.2 km/h
133 04-06-2014 12:40:00 19.7 C 11.04 g/m*3 19.7 C 6.4 km/h
134 04-06-2014 12:45:00 19.5 C 10.91 g/m*3 19.5 C 11.3 km/h
135 04-06-2014 12:50:00 19.3 C 10.78 g/m*3 19.3 C 9.7 km/h
136 04-06-2014 12:55:00 19.1 C 10.66 g/m*3 19.1 C 14.5 km/h
137 04-06-2014 13:00:00 18.8 C 10.79 g/m*3 18.8 C 19.3 km/h
138 04-06-2014 13:05:00 18.4 C 10.85 g/m*3 18.4 C 14.5 km/h
139 04-06-2014 13:10:00 18.2 C 11.19 g/m*3 18.2 C 11.3 km/h
140 04-06-2014 13:15:00 17.9 C 11.15 g/m*3 17.9 C 8.1 km/h
141 04-06-2014 13:20:00 17.8 C 10.93 g/m*3 17.8 C 4.8 km/h
142 04-06-2014 13:25:00 17.9 C 11.15 g/m*3 17.9 C 6.4 km/h
143 04-06-2014 13:30:00 18 C 11.21 g/m*3 18 C 9.7 km/h
144 04-06-2014 13:35:00 17.9 C 11.3 g/m*3 17.9 C 12.9 km/h
145 04-06-2014 13:40:00 17.8 C 11.23 g/m*3 17.8 C 8.1 km/h
146 04-06-2014 13:45:00 17.7 C 11.47 g/m*3 17.7 C 9.7 km/h
147 04-06-2014 13:50:00 17.7 C 12.07 g/m*3 17.7 C 8.1 km/h
148 04-06-2014 13:55:00 17.6 C 12 g/m*3 17.6 C 3.2 km/h
149 04-06-2014 14:00:00 17.5 C 11.63 g/m*3 17.5 C 4.8 km/h
150 04-06-2014 14:05:00 17.4 C 11.71 g/m*3 17.4 C 6.4 km/h
Sensor: Nr:Datum:Temp:Abs-Feuchte:Windchill:Wind:
Aussen-T/F 151 04-06-2014 14:10:00 17.3 C 11.93 g/m*3 17.3 C 6.4 km/h
152 04-06-2014 14:15:00 17.2 C 12.01 g/m*3 17.2 C 0 km/h
153 04-06-2014 14:20:00 17.1 C 11.94 g/m*3 17.1 C 0 km/h
154 04-06-2014 14:25:00 16.9 C 11.94 g/m*3 16.9 C 0 km/h
155 04-06-2014 14:30:00 16.7 C 11.94 g/m*3 16.7 C 0 km/h
156 04-06-2014 14:35:00 16.5 C 12.08 g/m*3 16.5 C 0 km/h
157 04-06-2014 14:40:00 16.4 C 12.14 g/m*3 16.4 C 0 km/h
158 04-06-2014 14:45:00 16.5 C 12.36 g/m*3 16.5 C 0 km/h
159 04-06-2014 14:50:00 16.8 C 12.87 g/m*3 16.8 C 0 km/h
160 04-06-2014 14:55:00 17.1 C 13.1 g/m*3 17.1 C 3.2 km/h
161 04-06-2014 15:00:00 17.4 C 13.19 g/m*3 17.4 C 4.8 km/h
162 04-06-2014 15:05:00 17.6 C 12.9 g/m*3 17.6 C 3.2 km/h
163 04-06-2014 15:10:00 17.8 C 12.9 g/m*3 17.8 C 4.8 km/h
164 04-06-2014 15:15:00 17.9 C 12.83 g/m*3 17.9 C 1.6 km/h
165 04-06-2014 15:20:00 17.8 C 12.9 g/m*3 17.8 C 0 km/h
166 04-06-2014 15:25:00 17.6 C 13.05 g/m*3 17.6 C 0 km/h
167 04-06-2014 15:30:00 17.2 C 12.89 g/m*3 17.2 C 0 km/h
168 04-06-2014 15:35:00 17.1 C 13.1 g/m*3 17.1 C 0 km/h
169 04-06-2014 15:40:00 17.2 C 13.33 g/m*3 17.2 C 0 km/h
170 04-06-2014 15:45:00 17.2 C 13.18 g/m*3 17.2 C 4.8 km/h
171 04-06-2014 15:50:00 17.2 C 13.18 g/m*3 17.2 C 3.2 km/h
172 04-06-2014 15:55:00 17.3 C 13.26 g/m*3 17.3 C 0 km/h
173 04-06-2014 16:00:00 17.4 C 13.34 g/m*3 17.4 C 0 km/h
174 04-06-2014 16:05:00 17.5 C 13.42 g/m*3 17.5 C 0 km/h
175 04-06-2014 16:10:00 17.4 C 13.34 g/m*3 17.4 C 0 km/h
Sensor: Nr:Datum:Temp:Abs-Feuchte:Windchill:Wind:
Aussen-T/F 176 04-06-2014 16:15:00 17.4 C 13.34 g/m*3 17.4 C 0 km/h
177 04-06-2014 16:20:00 17.4 C 13.49 g/m*3 17.4 C 0 km/h
178 04-06-2014 16:25:00 17.3 C 13.41 g/m*3 17.3 C 0 km/h
179 04-06-2014 16:30:00 17.2 C 13.33 g/m*3 17.2 C 0 km/h
180 04-06-2014 16:35:00 17.1 C 13.39 g/m*3 17.1 C 0 km/h
181 04-06-2014 16:40:00 16.7 C 13.07 g/m*3 16.7 C 0 km/h
182 04-06-2014 16:45:00 16.6 C 13.14 g/m*3 16.6 C 0 km/h
183 04-06-2014 16:50:00 16.5 C 13.06 g/m*3 16.5 C 1.6 km/h
184 04-06-2014 16:55:00 16.6 C 13.28 g/m*3 16.6 C 0 km/h
185 04-06-2014 17:00:00 16.4 C 12.98 g/m*3 16.4 C 0 km/h
186 04-06-2014 17:05:00 16.6 C 13.28 g/m*3 16.6 C 0 km/h
187 04-06-2014 17:10:00 16.6 C 13.28 g/m*3 16.6 C 0 km/h
188 04-06-2014 17:15:00 16.7 C 13.36 g/m*3 16.7 C 0 km/h
189 04-06-2014 17:20:00 16.8 C 13.58 g/m*3 16.8 C 0 km/h
190 04-06-2014 17:25:00 16.8 C 13.58 g/m*3 16.8 C 0 km/h
191 04-06-2014 17:30:00 16.8 C 13.58 g/m*3 16.8 C 0 km/h
192 04-06-2014 17:35:00 16.8 C 13.58 g/m*3 16.8 C 4.8 km/h
193 04-06-2014 17:40:00 16.8 C 13.58 g/m*3 16.8 C 0 km/h
194 04-06-2014 17:45:00 16.5 C 13.06 g/m*3 16.5 C 3.2 km/h
195 04-06-2014 17:50:00 16.3 C 12.9 g/m*3 16.3 C 1.6 km/h
196 04-06-2014 17:55:00 16.2 C 12.82 g/m*3 16.2 C 0 km/h
197 04-06-2014 18:00:00 16.1 C 12.75 g/m*3 16.1 C 0 km/h
198 04-06-2014 18:05:00 16.1 C 12.88 g/m*3 16.1 C 0 km/h
199 04-06-2014 18:10:00 16.2 C 12.96 g/m*3 16.2 C 0 km/h
200 04-06-2014 18:15:00 16.2 C 13.1 g/m*3 16.2 C 0 km/h
Sensor: Nr:Datum:Temp:Abs-Feuchte:Windchill:Wind:
Aussen-T/F 201 04-06-2014 18:20:00 16.3 C 13.18 g/m*3 16.3 C 0 km/h
202 04-06-2014 18:25:00 16.5 C 13.34 g/m*3 16.5 C 0 km/h
203 04-06-2014 18:30:00 16.6 C 13.28 g/m*3 16.6 C 0 km/h
204 04-06-2014 18:35:00 16.9 C 13.38 g/m*3 16.9 C 6.4 km/h
205 04-06-2014 18:40:00 17.2 C 13.47 g/m*3 17.2 C 0 km/h
206 04-06-2014 18:45:00 17.4 C 13.34 g/m*3 17.4 C 1.6 km/h
207 04-06-2014 18:50:00 17.8 C 13.36 g/m*3 17.8 C 1.6 km/h
208 04-06-2014 18:55:00 17.9 C 13.59 g/m*3 17.9 C 0 km/h
209 04-06-2014 19:00:00 17.9 C 13.44 g/m*3 17.9 C 0 km/h
210 04-06-2014 19:05:00 18.1 C 13.44 g/m*3 18.1 C 1.6 km/h
211 04-06-2014 19:10:00 18.1 C 13.75 g/m*3 18.1 C 3.2 km/h
212 04-06-2014 19:15:00 18.1 C 13.13 g/m*3 18.1 C 1.6 km/h
213 04-06-2014 19:20:00 18 C 13.52 g/m*3 18 C 0 km/h
214 04-06-2014 19:25:00 17.8 C 13.51 g/m*3 17.8 C 0 km/h
215 04-06-2014 19:30:00 17.6 C 13.5 g/m*3 17.6 C 0 km/h
216 04-06-2014 19:35:00 17.6 C 13.5 g/m*3 17.6 C 1.6 km/h
217 04-06-2014 21:45:00 14.6 C 11.89 g/m*3 14.6 C 0 km/h
218 04-06-2014 21:50:00 14.5 C 11.69 g/m*3 14.5 C 0 km/h
219 04-06-2014 21:55:00 14.5 C 11.69 g/m*3 14.5 C 1.6 km/h

Legende:
   Min
   Max


Maximal/Minimal-Werte vom 04.06.2014 - 04.06.2014

Sensor Min Max Avg
Temp
(Aussen-T/F)
10.5 °C
04-06-2014  04:35:00
21 °C
04-06-2014  12:00:00
14.95 °C
Abs-Feuchte
(Aussen-T/F)
9.12 g/m*3
04-06-2014  04:35:00
13.75 g/m*3
04-06-2014  19:10:00
11.02 g/m*3
Windchill
(Aussen-T/F)
10.5 C
04-06-2014  04:35:00
21 C
04-06-2014  12:00:00
14.89 C

Die Daten stammen von einer Davis Vantage Pro 2 Wetter-Station und werden unter Linux mit der Software wview2wettercgi und aufbereitet. Alle Angaben erfolgen ohne Gewähr für ihre Vollständigkeit oder Richtigkeit.
Kontakt: Rainer Krienke krienke@uni-koblenz.de . Meine Webseiten an der Uni Koblenz oder privat.
Version: $Revision: 0.78 $